createdAt,value
2019-01-21T00:00:34.851Z,31.35
2019-01-21T00:03:03.595Z,26.97
2019-01-21T00:05:32.027Z,28.42
2019-01-21T00:08:00.464Z,31.12
2019-01-21T00:10:28.932Z,28.60
2019-01-21T00:12:57.439Z,29.35
2019-01-21T00:15:25.972Z,31.45
2019-01-21T00:17:54.474Z,35.10
2019-01-21T00:20:22.938Z,34.53
2019-01-21T00:22:51.372Z,31.70
2019-01-21T00:25:19.838Z,28.27
2019-01-21T00:27:48.281Z,30.05
2019-01-21T00:30:16.800Z,27.17
2019-01-21T00:32:45.239Z,29.07
2019-01-21T00:35:13.707Z,32.65
2019-01-21T00:37:42.215Z,37.58
2019-01-21T00:40:16.019Z,37.03
2019-01-21T00:42:44.518Z,31.45
2019-01-21T00:45:13.113Z,29.92
2019-01-21T00:47:43.089Z,34.70
2019-01-21T00:50:13.185Z,36.63
2019-01-21T00:52:41.699Z,34.80
2019-01-21T00:55:11.903Z,26.62
2019-01-21T00:57:40.410Z,31.10
2019-01-21T01:00:14.637Z,32.08
2019-01-21T01:02:43.139Z,27.77
2019-01-21T01:05:12.347Z,37.95
2019-01-21T01:07:40.854Z,29.55
2019-01-21T01:10:11.832Z,29.18
2019-01-21T01:12:40.362Z,28.38
2019-01-21T01:15:11.703Z,26.27
2019-01-21T01:17:40.245Z,30.97
2019-01-21T01:20:17.698Z,33.20
2019-01-21T01:22:46.158Z,33.73
2019-01-21T01:25:14.665Z,29.32
2019-01-21T01:27:43.193Z,32.58
2019-01-21T01:30:14.072Z,29.92
2019-01-21T01:32:42.529Z,34.23
2019-01-21T01:35:12.504Z,29.85
2019-01-21T01:37:42.215Z,31.48
2019-01-21T01:40:13.499Z,44.03
2019-01-21T01:42:42.034Z,35.25
2019-01-21T01:45:13.874Z,31.17
2019-01-21T01:47:44.825Z,29.32
2019-01-21T01:50:12.620Z,32.70
2019-01-21T01:52:41.090Z,34.20
2019-01-21T01:55:10.864Z,35.98
2019-01-21T01:57:39.331Z,31.87
2019-01-21T02:00:13.497Z,34.83
2019-01-21T02:02:42.031Z,34.50
2019-01-21T02:05:10.913Z,30.95
2019-01-21T02:07:39.375Z,36.03
2019-01-21T02:10:10.946Z,38.13
2019-01-21T02:12:39.456Z,42.00
2019-01-21T02:15:10.972Z,39.13
2019-01-21T02:17:39.506Z,38.73
2019-01-21T02:20:11.445Z,34.88
2019-01-21T02:22:42.789Z,35.30
2019-01-21T02:25:11.877Z,37.70
2019-01-21T02:28:09.481Z,37.40
2019-01-21T02:30:59.299Z,35.43
2019-01-21T02:33:50.484Z,34.58
2019-01-21T02:36:39.558Z,35.60
2019-01-21T02:39:33.028Z,35.40
2019-01-21T02:42:07.264Z,33.80
2019-01-21T02:45:03.091Z,28.73
2019-01-21T02:47:34.710Z,29.55
2019-01-21T02:50:17.582Z,37.63
2019-01-21T02:52:49.194Z,34.10
2019-01-21T02:55:26.614Z,37.38
2019-01-21T02:58:15.978Z,32.00
2019-01-21T03:01:01.962Z,33.05
2019-01-21T03:03:42.159Z,41.55
2019-01-21T03:06:13.789Z,30.82
2019-01-21T03:08:51.357Z,36.83
2019-01-21T03:11:35.148Z,35.88
2019-01-21T03:14:09.754Z,37.25
2019-01-21T03:16:44.298Z,35.43
2019-01-21T03:19:27.784Z,36.55
2019-01-21T03:22:22.397Z,35.30
2019-01-21T03:25:02.905Z,32.78
2019-01-21T03:27:54.407Z,35.25
2019-01-21T03:30:47.274Z,35.20
2019-01-21T03:33:31.101Z,33.85
2019-01-21T03:36:05.999Z,34.13
2019-01-21T03:38:52.742Z,31.93
2019-01-21T03:41:24.377Z,41.40
2019-01-21T03:43:58.797Z,32.98
2019-01-21T03:46:42.329Z,36.88
2019-01-21T03:49:26.005Z,35.50
2019-01-21T03:52:23.174Z,40.00
2019-01-21T03:54:52.049Z,38.78
2019-01-21T03:57:26.278Z,35.45
2019-01-21T04:00:15.971Z,33.08
2019-01-21T04:03:10.448Z,35.45
2019-01-21T04:06:00.405Z,34.73
2019-01-21T04:08:34.771Z,35.05
2019-01-21T04:11:33.789Z,33.10
2019-01-21T04:14:23.726Z,34.03
2019-01-21T04:17:13.395Z,30.60
2019-01-21T04:19:45.293Z,37.13
2019-01-21T04:22:31.741Z,38.13
2019-01-21T04:25:18.170Z,39.85
2019-01-21T04:28:11.163Z,38.35
2019-01-21T04:31:01.049Z,39.10
2019-01-21T04:33:44.746Z,39.53
2019-01-21T04:36:28.054Z,37.90
2019-01-21T04:39:27.056Z,35.25
2019-01-21T04:42:13.822Z,38.45
2019-01-21T04:45:05.242Z,39.08
2019-01-21T04:48:01.194Z,40.25
2019-01-21T04:50:44.519Z,41.85
2019-01-21T04:53:27.995Z,45.40
2019-01-21T04:55:59.976Z,47.48
2019-01-21T04:58:34.459Z,43.48
2019-01-21T05:01:08.507Z,44.53
2019-01-21T05:04:13.709Z,35.80
2019-01-21T05:06:45.310Z,39.25
2019-01-21T05:09:28.515Z,44.98
2019-01-21T05:12:15.278Z,42.23
2019-01-21T05:15:09.520Z,36.77
2019-01-21T05:17:43.884Z,36.80
2019-01-21T05:20:18.545Z,43.30
2019-01-21T05:23:06.925Z,42.10
2019-01-21T05:25:38.555Z,41.45
2019-01-21T05:28:26.658Z,37.58
2019-01-21T05:30:58.293Z,41.70
2019-01-21T05:33:36.352Z,42.17
2019-01-21T05:36:26.248Z,42.80
2019-01-21T05:39:13.033Z,38.13
2019-01-21T05:42:01.189Z,44.40
2019-01-21T05:44:35.354Z,42.73
2019-01-21T05:47:22.210Z,42.20
2019-01-21T05:50:02.762Z,39.58
2019-01-21T05:52:50.978Z,39.42
2019-01-21T05:55:40.704Z,44.25
2019-01-21T05:58:27.324Z,44.88
2019-01-21T06:01:09.962Z,52.43
2019-01-21T06:03:44.114Z,49.67
2019-01-21T06:06:32.630Z,44.23
2019-01-21T06:09:10.294Z,42.23
2019-01-21T06:11:44.609Z,48.70
2019-01-21T06:14:45.129Z,44.18
2019-01-21T06:17:28.681Z,46.68
2019-01-21T06:20:14.753Z,44.20
2019-01-21T06:23:01.179Z,50.17
2019-01-21T06:25:41.474Z,53.90
2019-01-21T06:28:28.016Z,56.65
2019-01-21T06:31:05.384Z,47.65
2019-01-21T06:33:42.960Z,45.85
2019-01-21T06:36:14.607Z,49.98
2019-01-21T06:38:48.984Z,49.23
2019-01-21T06:41:38.778Z,48.08
2019-01-21T06:44:16.339Z,49.10
2019-01-21T06:47:08.608Z,52.50
2019-01-21T06:49:46.163Z,53.10
2019-01-21T06:52:20.712Z,54.15
2019-01-21T06:55:10.409Z,52.88
2019-01-21T06:58:01.752Z,57.30
2019-01-21T07:01:06.561Z,53.63
2019-01-21T07:03:49.956Z,59.00
2019-01-21T07:06:33.449Z,58.38
2019-01-21T07:09:11.177Z,51.25
2019-01-21T07:11:57.581Z,56.65
2019-01-21T07:14:34.455Z,58.80
2019-01-21T07:17:08.909Z,55.55
2019-01-21T07:19:40.530Z,53.55
2019-01-21T07:22:30.399Z,47.65
2019-01-21T07:25:16.962Z,55.30
2019-01-21T07:28:09.787Z,49.93
2019-01-21T07:31:01.898Z,48.30
2019-01-21T07:33:35.961Z,44.88
2019-01-21T07:36:22.899Z,46.85
2019-01-21T07:38:57.296Z,46.73
2019-01-21T07:41:47.110Z,46.77
2019-01-21T07:44:30.909Z,46.15
2019-01-21T07:47:17.586Z,45.55
2019-01-21T07:49:55.232Z,46.15
2019-01-21T07:52:32.602Z,49.27
2019-01-21T07:55:21.003Z,55.08
2019-01-21T07:57:55.112Z,53.58
2019-01-21T08:00:29.498Z,55.98
2019-01-21T08:03:06.868Z,51.13
2019-01-21T08:05:38.511Z,46.88
2019-01-21T08:08:12.831Z,52.83
2019-01-21T08:10:53.463Z,49.60
2019-01-21T08:13:25.075Z,51.35
2019-01-21T08:15:59.670Z,47.55
2019-01-21T08:18:56.722Z,44.35
2019-01-21T08:21:37.120Z,49.45
2019-01-21T08:24:35.910Z,56.48
2019-01-21T08:27:10.518Z,55.63
2019-01-21T08:29:42.162Z,54.43
2019-01-21T08:32:31.884Z,50.75
2019-01-21T08:35:06.358Z,47.37
2019-01-21T08:37:40.790Z,54.33
2019-01-21T08:40:34.958Z,53.80
2019-01-21T08:43:12.685Z,50.75
2019-01-21T08:46:05.295Z,47.13
2019-01-21T08:48:53.382Z,53.70
2019-01-21T08:51:33.921Z,51.03
2019-01-21T08:54:14.525Z,52.93
2019-01-21T08:57:04.584Z,42.77
2019-01-21T08:59:57.454Z,51.07
2019-01-21T09:02:48.464Z,45.05
2019-01-21T09:05:32.205Z,41.08
2019-01-21T09:08:15.673Z,42.30
2019-01-21T09:10:56.084Z,44.07
2019-01-21T09:13:51.775Z,44.43
2019-01-21T09:16:35.302Z,48.27
2019-01-21T09:19:21.792Z,43.37
2019-01-21T09:21:59.112Z,49.20
2019-01-21T09:24:45.807Z,48.80
2019-01-21T09:27:20.487Z,40.47
2019-01-21T09:30:04.120Z,40.90
2019-01-21T09:32:35.750Z,52.87
2019-01-21T09:35:07.359Z,54.03
2019-01-21T09:37:47.953Z,45.40
2019-01-21T09:40:22.617Z,49.80
2019-01-21T09:43:00.390Z,46.27
2019-01-21T09:45:37.961Z,37.60
2019-01-21T09:48:05.384Z,46.60
2019-01-21T09:50:34.181Z,42.83
2019-01-21T09:53:02.708Z,43.03
2019-01-21T09:55:31.204Z,41.27
2019-01-21T09:58:08.233Z,44.53
2019-01-21T10:00:36.799Z,38.50
2019-01-21T10:03:05.821Z,42.53
2019-01-21T10:05:36.119Z,45.60
2019-01-21T10:08:10.404Z,43.10
2019-01-21T10:11:03.523Z,37.33
2019-01-21T10:13:58.343Z,45.10
2019-01-21T10:16:41.964Z,41.37
2019-01-21T10:19:31.703Z,40.80
2019-01-21T10:22:09.028Z,38.20
2019-01-21T10:24:52.815Z,40.20
2019-01-21T10:27:27.173Z,42.37
2019-01-21T10:30:19.745Z,41.00
2019-01-21T10:33:09.640Z,45.33
2019-01-21T10:35:50.306Z,38.90
2019-01-21T10:38:46.038Z,38.07
2019-01-21T10:41:20.539Z,46.10
2019-01-21T10:43:58.089Z,42.77
2019-01-21T10:46:29.715Z,43.10
2019-01-21T10:49:01.320Z,45.00
2019-01-21T10:51:44.952Z,38.57
2019-01-21T10:54:28.672Z,36.73
2019-01-21T10:57:21.408Z,40.50
2019-01-21T11:00:11.086Z,36.63
2019-01-21T11:02:48.395Z,37.90
2019-01-21T11:05:25.886Z,37.07
2019-01-21T11:08:00.069Z,43.17
2019-01-21T11:10:46.717Z,38.37
2019-01-21T11:13:36.360Z,36.73
2019-01-21T11:16:22.857Z,38.03
2019-01-21T11:19:00.049Z,36.50
2019-01-21T11:21:34.351Z,40.37
2019-01-21T11:24:08.509Z,34.37
2019-01-21T11:26:48.744Z,38.50
2019-01-21T11:29:20.348Z,37.03
2019-01-21T11:32:15.883Z,35.77
2019-01-21T11:35:02.731Z,41.20
2019-01-21T11:37:34.354Z,33.00
2019-01-21T11:40:14.230Z,33.97
2019-01-21T11:42:48.550Z,37.33
2019-01-21T11:45:29.201Z,34.67
2019-01-21T11:48:00.825Z,36.93
2019-01-21T11:50:48.776Z,35.27
2019-01-21T11:53:29.492Z,34.43
2019-01-21T11:56:13.158Z,31.90
2019-01-21T11:58:50.544Z,34.70
2019-01-21T12:01:32.078Z,35.57
2019-01-21T12:04:18.263Z,35.30
2019-01-21T12:06:58.967Z,34.53
2019-01-21T12:09:35.773Z,36.50
2019-01-21T12:12:07.408Z,32.17
2019-01-21T12:14:55.529Z,34.03
2019-01-21T12:17:32.810Z,40.70
2019-01-21T12:20:10.237Z,37.77
2019-01-21T12:23:07.247Z,32.00
2019-01-21T12:25:44.715Z,30.43
2019-01-21T12:28:25.133Z,32.60
2019-01-21T12:31:02.846Z,32.27
2019-01-21T12:33:43.021Z,32.43
2019-01-21T12:36:20.236Z,31.17
2019-01-21T12:38:54.630Z,30.47
2019-01-21T12:41:48.773Z,32.70
2019-01-21T12:44:35.710Z,38.33
2019-01-21T12:47:32.983Z,37.50
2019-01-21T12:50:10.395Z,31.90
2019-01-21T12:52:41.997Z,33.57
2019-01-21T12:55:22.590Z,33.53
2019-01-21T12:58:12.114Z,34.23
2019-01-21T13:00:55.188Z,33.13
2019-01-21T13:03:46.518Z,34.93
2019-01-21T13:06:23.396Z,37.43
2019-01-21T13:09:13.258Z,33.50
2019-01-21T13:11:56.635Z,36.47
2019-01-21T13:14:40.118Z,31.93
2019-01-21T13:17:14.646Z,28.80
2019-01-21T13:20:05.680Z,33.10
2019-01-21T13:22:40.133Z,32.83
2019-01-21T13:25:28.239Z,31.10
2019-01-21T13:28:19.272Z,36.03
2019-01-21T13:31:21.394Z,32.27
2019-01-21T13:34:04.284Z,31.83
2019-01-21T13:37:09.521Z,30.07
2019-01-21T13:39:56.073Z,30.13
2019-01-21T13:42:27.668Z,30.93
2019-01-21T13:45:05.290Z,33.87
2019-01-21T13:48:01.323Z,31.13
2019-01-21T13:50:45.924Z,29.93
2019-01-21T13:53:23.491Z,33.10
2019-01-21T13:56:04.303Z,29.57
2019-01-21T13:58:54.134Z,29.33
2019-01-21T14:01:28.566Z,34.93
2019-01-21T14:04:03.117Z,31.80
2019-01-21T14:07:01.463Z,36.03
2019-01-21T14:09:42.101Z,31.17
2019-01-21T14:12:16.463Z,31.07
2019-01-21T14:14:48.062Z,32.33
2019-01-21T14:17:25.523Z,31.43
2019-01-21T14:20:02.726Z,32.90
2019-01-21T14:22:43.375Z,30.70
2019-01-21T14:25:20.929Z,30.23
2019-01-21T14:28:07.470Z,30.47
2019-01-21T14:30:47.834Z,26.43
2019-01-21T14:33:22.058Z,31.73
2019-01-21T14:36:02.747Z,29.50
2019-01-21T14:38:37.153Z,32.17
2019-01-21T14:41:17.808Z,28.60
2019-01-21T14:43:55.226Z,28.40
2019-01-21T14:46:32.693Z,31.70
2019-01-21T14:49:19.265Z,30.00
2019-01-21T14:51:56.749Z,31.03
2019-01-21T14:54:37.540Z,29.40
2019-01-21T14:57:15.062Z,28.80
2019-01-21T15:00:16.723Z,31.53
2019-01-21T15:03:07.196Z,35.57
2019-01-21T15:05:50.458Z,31.77
2019-01-21T15:08:22.056Z,34.37
2019-01-21T15:10:59.551Z,28.10
2019-01-21T15:13:36.919Z,32.70
2019-01-21T15:16:23.584Z,27.60
2019-01-21T15:19:00.475Z,25.87
2019-01-21T15:21:40.857Z,27.90
2019-01-21T15:24:15.405Z,28.77
2019-01-21T15:26:58.546Z,27.03
2019-01-21T15:29:42.030Z,29.57
2019-01-21T15:32:30.131Z,26.70
2019-01-21T15:35:20.727Z,25.90
2019-01-21T15:38:04.588Z,27.37
2019-01-21T15:40:53.016Z,27.73
2019-01-21T15:43:32.945Z,30.73
2019-01-21T15:46:30.482Z,28.27
2019-01-21T15:49:07.748Z,26.90
2019-01-21T15:52:00.558Z,28.20
2019-01-21T15:54:37.832Z,27.07
2019-01-21T15:57:21.573Z,28.70
2019-01-21T16:00:05.134Z,29.67
2019-01-21T16:02:45.923Z,32.07
2019-01-21T16:05:20.358Z,27.83
2019-01-21T16:07:52.198Z,33.93
2019-01-21T16:10:35.610Z,31.57
2019-01-21T16:13:26.722Z,30.13
2019-01-21T16:16:24.515Z,31.33
2019-01-21T16:18:58.907Z,33.07
2019-01-21T16:21:45.655Z,28.80
2019-01-21T16:24:23.476Z,28.63
2019-01-21T16:26:57.787Z,32.20
2019-01-21T16:29:38.254Z,31.67
2019-01-21T16:32:07.548Z,27.30
2019-01-21T16:35:00.513Z,31.03
2019-01-21T16:37:34.677Z,34.20
2019-01-21T16:40:21.239Z,31.33
2019-01-21T16:42:49.767Z,29.90
2019-01-21T16:45:18.198Z,32.70
2019-01-21T16:47:46.656Z,31.30
2019-01-21T16:50:15.141Z,31.50
2019-01-21T16:52:43.663Z,29.60
2019-01-21T16:55:12.156Z,26.17
2019-01-21T16:57:40.613Z,28.63
2019-01-21T17:00:13.839Z,28.10
2019-01-21T17:02:42.289Z,29.67
2019-01-21T17:05:13.251Z,27.43
2019-01-21T17:07:41.706Z,36.33
2019-01-21T17:10:11.877Z,32.60
2019-01-21T17:12:40.327Z,32.53
2019-01-21T17:15:11.499Z,33.80
2019-01-21T17:17:40.017Z,29.30
2019-01-21T17:20:11.613Z,31.23
2019-01-21T17:22:40.066Z,28.10
2019-01-21T17:25:09.528Z,30.03
2019-01-21T17:27:37.986Z,31.87
2019-01-21T17:30:09.587Z,29.20
2019-01-21T17:32:38.040Z,32.13
2019-01-21T17:35:08.611Z,30.60
2019-01-21T17:37:37.061Z,33.63
2019-01-21T17:40:14.574Z,29.87
2019-01-21T17:42:43.016Z,34.83
2019-01-21T17:45:14.687Z,33.90
2019-01-21T17:47:43.207Z,31.13
2019-01-21T17:50:13.977Z,31.27
2019-01-21T17:52:42.473Z,32.63
2019-01-21T17:55:11.666Z,37.43
2019-01-21T17:57:40.091Z,35.50
2019-01-21T18:00:16.028Z,36.70
2019-01-21T18:02:44.465Z,35.13
2019-01-21T18:05:12.985Z,38.23
2019-01-21T18:07:41.416Z,34.73
2019-01-21T18:10:13.012Z,34.20
2019-01-21T18:12:41.513Z,36.30
2019-01-21T18:15:12.005Z,36.40
2019-01-21T18:17:40.520Z,41.50
2019-01-21T18:20:14.939Z,42.30
2019-01-21T18:22:43.373Z,36.47
2019-01-21T18:25:12.771Z,32.63
2019-01-21T18:27:41.260Z,34.20
2019-01-21T18:30:12.891Z,35.30
2019-01-21T18:32:41.323Z,34.57
2019-01-21T18:35:11.659Z,32.03
2019-01-21T18:37:40.425Z,34.67
2019-01-21T18:40:14.567Z,34.55
2019-01-21T18:42:43.080Z,32.80
2019-01-21T18:45:15.085Z,36.40
2019-01-21T18:47:43.504Z,33.43
2019-01-21T18:50:12.902Z,39.50
2019-01-21T18:52:41.495Z,34.13
2019-01-21T18:55:10.781Z,39.17
2019-01-21T18:57:39.208Z,39.43
2019-01-21T19:00:13.692Z,37.20
2019-01-21T19:02:43.361Z,35.60
2019-01-21T19:05:12.032Z,39.70
2019-01-21T19:07:40.464Z,36.47
2019-01-21T19:10:11.809Z,34.47
2019-01-21T19:12:40.199Z,40.43
2019-01-21T19:15:17.629Z,40.73
2019-01-21T19:17:46.124Z,35.20
2019-01-21T19:20:16.018Z,35.33
2019-01-21T19:22:44.444Z,39.60
2019-01-21T19:25:13.361Z,37.40
2019-01-21T19:27:41.858Z,33.00
2019-01-21T19:30:16.390Z,39.83
2019-01-21T19:32:44.888Z,33.17
2019-01-21T19:35:16.543Z,33.00
2019-01-21T19:37:44.969Z,39.20
2019-01-21T19:40:16.468Z,32.33
2019-01-21T19:42:44.902Z,44.93
2019-01-21T19:45:13.499Z,35.53
2019-01-21T19:47:41.996Z,35.90
2019-01-21T19:50:13.691Z,37.77
2019-01-21T19:52:42.188Z,38.63
2019-01-21T19:55:26.183Z,41.50
2019-01-21T19:57:54.752Z,36.93
2019-01-21T20:00:23.953Z,38.77
2019-01-21T20:02:52.454Z,40.67
2019-01-21T20:05:21.047Z,35.93
2019-01-21T20:07:49.543Z,40.67
2019-01-21T20:10:20.309Z,37.53
2019-01-21T20:12:48.868Z,37.50
2019-01-21T20:15:18.359Z,35.10
2019-01-21T20:17:46.861Z,35.20
2019-01-21T20:20:18.207Z,38.00
2019-01-21T20:22:46.724Z,42.03
2019-01-21T20:25:15.149Z,52.17
2019-01-21T20:27:43.672Z,37.57
2019-01-21T20:30:17.123Z,38.67
2019-01-21T20:32:45.746Z,42.27
2019-01-21T20:35:14.917Z,39.83
2019-01-21T20:37:43.376Z,43.40
2019-01-21T20:40:20.740Z,41.57
2019-01-21T20:42:49.263Z,46.10
2019-01-21T20:45:17.760Z,40.03
2019-01-21T20:47:46.214Z,44.60
2019-01-21T20:50:17.389Z,43.30
2019-01-21T20:52:45.919Z,44.57
2019-01-21T20:55:14.777Z,41.63
2019-01-21T20:57:43.233Z,43.97
2019-01-21T21:00:17.840Z,46.07
2019-01-21T21:02:46.360Z,47.17
2019-01-21T21:05:14.920Z,45.50
2019-01-21T21:07:43.377Z,39.83
2019-01-21T21:10:12.741Z,36.77
2019-01-21T21:12:41.188Z,38.40
2019-01-21T21:15:18.757Z,44.67
2019-01-21T21:17:47.207Z,43.53
2019-01-21T21:20:16.278Z,44.33
2019-01-21T21:22:44.771Z,41.13
2019-01-21T21:25:16.141Z,43.33
2019-01-21T21:27:44.568Z,46.07
2019-01-21T21:30:18.894Z,50.07
2019-01-21T21:32:47.360Z,41.50
2019-01-21T21:35:15.993Z,44.20
2019-01-21T21:37:44.498Z,40.20
2019-01-21T21:40:17.756Z,44.67
2019-01-21T21:42:46.567Z,48.37
2019-01-21T21:45:16.964Z,43.40
2019-01-21T21:47:45.458Z,44.13
2019-01-21T21:50:16.550Z,43.93
2019-01-21T21:52:44.975Z,42.90
2019-01-21T21:55:13.766Z,41.87
2019-01-21T21:57:42.184Z,42.97
2019-01-21T22:00:16.676Z,48.13
2019-01-21T22:02:45.104Z,45.60
2019-01-21T22:05:13.700Z,44.17
2019-01-21T22:07:42.201Z,39.50
2019-01-21T22:10:19.691Z,46.13
2019-01-21T22:12:46.188Z,43.33
2019-01-21T22:15:19.707Z,43.67
2019-01-21T22:17:48.130Z,46.27
2019-01-21T22:20:18.628Z,48.70
2019-01-21T22:22:47.319Z,43.10
2019-01-21T22:25:16.291Z,42.57
2019-01-21T22:27:44.710Z,45.40
2019-01-21T22:30:18.955Z,46.53
2019-01-21T22:32:47.376Z,44.63
2019-01-21T22:35:15.904Z,43.33
2019-01-21T22:37:44.712Z,50.33
2019-01-21T22:40:18.349Z,49.37
2019-01-21T22:42:46.845Z,46.50
2019-01-21T22:45:16.730Z,48.13
2019-01-21T22:47:45.229Z,44.03
2019-01-21T22:50:15.301Z,44.77
2019-01-21T22:52:43.811Z,44.03
2019-01-21T22:55:13.603Z,46.93
2019-01-21T22:57:42.100Z,40.70
2019-01-21T23:00:22.351Z,45.80
2019-01-21T23:02:50.780Z,42.33
2019-01-21T23:05:19.303Z,44.80
2019-01-21T23:07:47.732Z,49.00
2019-01-21T23:10:16.256Z,48.17
2019-01-21T23:12:44.692Z,46.43
2019-01-21T23:15:13.293Z,57.77
2019-01-21T23:17:41.723Z,46.77
2019-01-21T23:20:11.182Z,45.30
2019-01-21T23:22:39.632Z,52.70
2019-01-21T23:25:08.398Z,46.17
2019-01-21T23:27:37.231Z,43.63
2019-01-21T23:30:14.389Z,41.77
2019-01-21T23:32:42.839Z,47.43
2019-01-21T23:35:11.271Z,45.77
2019-01-21T23:37:39.726Z,46.97
2019-01-21T23:40:10.672Z,51.77
2019-01-21T23:42:39.119Z,54.80
2019-01-21T23:45:09.496Z,56.45
2019-01-21T23:47:37.946Z,47.27
2019-01-21T23:50:11.607Z,58.35
2019-01-21T23:52:40.446Z,49.40
2019-01-21T23:55:10.915Z,60.70
2019-01-21T23:57:41.501Z,50.67
